« Back
NWS Peachtree City, Ga » Text Product » CSG Terminal Aerodrome Forecast


Printer-friendly Version
Current Version              Previous Versions:   1  2  3  4  5  6  7  8  9  

Terminal Aerodrome Forecast

152
FTUS42 KFFC 301700
TAFCSG
TAF
KCSG 301720Z 3018/0118 04005KT P6SM SCT020 BKN040
      TEMPO 3018/3020 BKN020
     FM302200 VRB03KT P6SM SCT040
     FM011000 00000KT 2SM BR SCT008
     FM011400 23005KT P6SM SCT040=



USA.gov is the U.S. government's official web portal to all federal, state and local government web resources and services.